Time;durP1;ratioP1;P1;durP2;ratioP2;P2;SDS_P1;SDS_P2;PMS_P1;PMS_P2;Temp;Humidity;BMP_temperature;BMP_pressure;BME280_temperature;BME280_humidity;BME280_pressure;Samples;Min_cycle;Max_cycle;Signal;HPM_P1;HPM_P2
2024/01/09 00:01:12;;;;;;;4.65;2.80;;;0.70;57.80;;;;;;5050787;28;20052;-75
2024/01/09 00:03:38;;;;;;;7.63;4.13;;;0.70;57.80;;;;;;5051996;28;20041;-75
2024/01/09 00:06:05;;;;;;;4.07;3.15;;;0.70;57.70;;;;;;5051070;28;20045;-73
2024/01/09 00:08:31;;;;;;;3.83;2.72;;;0.70;57.30;;;;;;5051956;28;20124;-75
2024/01/09 00:11:00;;;;;;;7.53;3.50;;;0.80;57.20;;;;;;5049355;28;20505;-74
2024/01/09 00:13:26;;;;;;;5.68;3.60;;;0.70;56.80;;;;;;5043232;28;20037;-74
2024/01/09 00:15:52;;;;;;;7.97;3.28;;;0.70;57.50;;;;;;5050353;28;20532;-75
2024/01/09 00:18:18;;;;;;;8.18;3.33;;;0.70;57.10;;;;;;5051451;28;20045;-73
2024/01/09 00:20:44;;;;;;;5.97;3.30;;;0.70;57.00;;;;;;5049697;28;20043;-75
2024/01/09 00:23:10;;;;;;;4.88;3.13;;;0.70;56.30;;;;;;5052818;28;20383;-75
2024/01/09 00:25:36;;;;;;;5.85;3.50;;;0.70;56.40;;;;;;5054623;28;20104;-74
2024/01/09 00:28:03;;;;;;;4.07;1.80;;;0.60;56.60;;;;;;5054194;28;20045;-75
2024/01/09 00:30:29;;;;;;;6.80;2.13;;;0.60;55.60;;;;;;5054810;28;20033;-75
2024/01/09 00:32:55;;;;;;;3.75;2.35;;;0.60;55.80;;;;;;5055521;28;20040;-75
2024/01/09 00:35:21;;;;;;;4.00;1.85;;;0.60;55.50;;;;;;5055115;28;20037;-74
2024/01/09 00:37:47;;;;;;;20.40;3.85;;;0.60;55.60;;;;;;5055628;28;20033;-73
2024/01/09 00:40:13;;;;;;;5.85;2.67;;;0.60;55.50;;;;;;5054508;28;20041;-73
2024/01/09 00:42:40;;;;;;;6.72;2.70;;;0.60;55.30;;;;;;5055601;28;20470;-75
2024/01/09 00:45:07;;;;;;;21.05;4.97;;;0.60;55.20;;;;;;5055073;28;20045;-73
2024/01/09 00:47:33;;;;;;;6.50;3.97;;;0.60;55.00;;;;;;5054899;28;20036;-75
2024/01/09 00:49:59;;;;;;;;;;;0.60;55.00;;;;;;5054462;28;20059;-73
2024/01/09 00:52:25;;;;;;;4.07;2.75;;;0.70;54.60;;;;;;5053295;28;19936;-73
2024/01/09 00:54:51;;;;;;;3.35;2.47;;;0.60;54.30;;;;;;5055356;28;20084;-74
2024/01/09 00:57:18;;;;;;;4.88;2.92;;;0.60;55.20;;;;;;5037183;28;20033;-74
2024/01/09 00:59:44;;;;;;;4.47;1.90;;;0.60;53.90;;;;;;5053508;28;20057;-75
2024/01/09 01:02:10;;;;;;;2.25;1.90;;;0.50;54.20;;;;;;5052677;28;20107;-74
2024/01/09 01:04:55;;;;;;;5.38;4.38;;;0.60;54.20;;;;;;5047856;28;20033;-75
2024/01/09 01:07:21;;;;;;;4.32;2.33;;;0.50;53.30;;;;;;5053049;28;20095;-73
2024/01/09 01:09:47;;;;;;;4.90;2.53;;;0.50;53.30;;;;;;5055472;28;20029;-73
2024/01/09 01:12:13;;;;;;;4.45;2.88;;;0.40;53.10;;;;;;5052442;28;20448;-73
2024/01/09 01:14:39;;;;;;;5.70;3.58;;;0.50;53.10;;;;;;5053509;28;20079;-73
2024/01/09 01:17:05;;;;;;;3.95;2.72;;;0.50;53.40;;;;;;5053492;28;20083;-74
2024/01/09 01:19:31;;;;;;;5.50;2.58;;;0.40;52.40;;;;;;5054825;28;20056;-75
2024/01/09 01:21:57;;;;;;;2.70;1.00;;;0.40;52.90;;;;;;5036192;28;20036;-73
2024/01/09 01:24:23;;;;;;;10.77;3.42;;;0.40;52.80;;;;;;5052971;28;20564;-75
2024/01/09 01:26:50;;;;;;;2.72;1.77;;;0.40;53.00;;;;;;5053277;28;20033;-75
2024/01/09 01:29:16;;;;;;;4.65;2.78;;;0.40;52.70;;;;;;5054723;28;20049;-75
2024/01/09 01:31:42;;;;;;;6.18;3.75;;;0.40;53.00;;;;;;5052283;28;20456;-74
2024/01/09 01:34:08;;;;;;;8.13;5.80;;;0.40;53.00;;;;;;5052269;28;20073;-74
2024/01/09 01:36:34;;;;;;;7.50;4.18;;;0.50;53.00;;;;;;5052918;28;20033;-74
2024/01/09 01:39:00;;;;;;;4.85;3.65;;;0.50;52.50;;;;;;5054408;28;20033;-75
2024/01/09 01:41:26;;;;;;;9.65;4.00;;;0.50;52.80;;;;;;5052197;28;20041;-74
2024/01/09 01:43:52;;;;;;;3.83;1.95;;;0.50;52.50;;;;;;5054382;28;20033;-75
2024/01/09 01:46:18;;;;;;;9.02;4.50;;;0.50;52.50;;;;;;5052862;28;20472;-74
2024/01/09 01:48:44;;;;;;;2.45;1.50;;;0.40;53.00;;;;;;5044426;28;20452;-75
2024/01/09 01:51:10;;;;;;;3.05;1.80;;;0.40;52.00;;;;;;5053600;28;20037;-75
2024/01/09 01:53:37;;;;;;;7.45;3.60;;;0.40;51.80;;;;;;5052203;28;20037;-74
2024/01/09 01:56:03;;;;;;;6.25;2.65;;;0.40;51.50;;;;;;5053845;28;20071;-73
2024/01/09 01:58:32;;;;;;;4.43;3.40;;;0.40;51.20;;;;;;5053814;28;20059;-74
2024/01/09 02:01:00;;;;;;;7.07;3.38;;;0.40;51.10;;;;;;5051822;28;20118;-73
2024/01/09 02:03:26;;;;;;;5.50;3.78;;;0.40;50.90;;;;;;5052467;28;20033;-75
2024/01/09 02:05:53;;;;;;;6.47;3.95;;;0.30;50.20;;;;;;5052121;28;20079;-75
2024/01/09 02:08:22;;;;;;;5.22;3.30;;;0.30;50.50;;;;;;5053418;28;20512;-75
2024/01/09 02:10:49;;;;;;;6.38;3.33;;;0.20;50.30;;;;;;5043303;28;20037;-75
2024/01/09 02:13:15;;;;;;;;;;;0.30;50.20;;;;;;5054022;28;20373;-75
2024/01/09 02:15:41;;;;;;;3.33;1.48;;;0.30;50.70;;;;;;5052187;28;19917;-73
2024/01/09 02:18:08;;;;;;;3.97;2.42;;;0.20;51.30;;;;;;5053199;28;20029;-74
2024/01/09 02:20:34;;;;;;;3.03;1.35;;;0.20;50.30;;;;;;5052924;28;20037;-74
2024/01/09 02:23:00;;;;;;;6.65;2.65;;;0.20;50.40;;;;;;5052176;28;20041;-74
2024/01/09 02:25:27;;;;;;;5.72;3.30;;;0.20;50.50;;;;;;5051992;28;20028;-75
2024/01/09 02:28:31;;;;;;;2.78;1.98;;;0.20;50.30;;;;;;5051840;28;20043;-73
2024/01/09 02:30:57;;;;;;;4.45;1.50;;;0.20;48.60;;;;;;5067799;28;20486;-73
2024/01/09 02:33:24;;;;;;;2.33;1.83;;;0.10;47.70;;;;;;5053571;28;20104;-74
2024/01/09 02:35:50;;;;;;;4.15;1.92;;;0.10;48.70;;;;;;5051469;28;20088;-75
2024/01/09 02:38:17;;;;;;;3.88;1.98;;;0.00;48.40;;;;;;5051997;28;20080;-75
2024/01/09 02:40:43;;;;;;;10.70;3.03;;;0.00;48.00;;;;;;5051418;28;20121;-73
2024/01/09 02:43:09;;;;;;;2.88;1.70;;;0.00;47.90;;;;;;5051672;28;20033;-75
2024/01/09 02:45:35;;;;;;;3.70;2.13;;;0.00;48.60;;;;;;5053158;28;20032;-74
2024/01/09 02:48:01;;;;;;;1.52;0.82;;;0.00;48.80;;;;;;5052527;28;20037;-75
2024/01/09 02:50:27;;;;;;;4.75;2.13;;;0.00;48.30;;;;;;5051415;28;20044;-75
2024/01/09 02:52:55;;;;;;;5.88;3.03;;;-0.10;47.80;;;;;;5052527;28;20091;-73
2024/01/09 02:55:21;;;;;;;4.25;2.10;;;-0.10;47.70;;;;;;5052600;28;20048;-75
2024/01/09 02:57:47;;;;;;;3.40;1.52;;;-0.10;48.40;;;;;;5052831;28;20028;-75
2024/01/09 03:00:14;;;;;;;3.30;1.38;;;-0.10;47.80;;;;;;5034363;28;20044;-75
2024/01/09 03:02:40;;;;;;;3.55;2.33;;;-0.10;48.30;;;;;;5051584;28;20017;-75
2024/01/09 03:05:07;;;;;;;6.15;2.55;;;-0.10;48.20;;;;;;5067733;28;20083;-73
2024/01/09 03:07:34;;;;;;;2.30;1.75;;;-0.10;48.20;;;;;;5052510;28;20056;-74
2024/01/09 03:10:01;;;;;;;3.10;1.63;;;-0.10;48.20;;;;;;5050906;28;20067;-74
2024/01/09 03:12:27;;;;;;;2.55;2.08;;;-0.10;47.70;;;;;;5050617;28;20044;-74
2024/01/09 03:14:53;;;;;;;3.95;2.30;;;-0.10;48.10;;;;;;5051102;28;20045;-73
2024/01/09 03:17:19;;;;;;;1.40;1.10;;;-0.20;47.70;;;;;;5051227;28;20120;-74
2024/01/09 03:19:45;;;;;;;2.97;1.75;;;-0.10;48.80;;;;;;5051148;28;20493;-74
2024/01/09 03:22:12;;;;;;;5.55;1.65;;;-0.10;48.40;;;;;;5026004;28;20056;-75
2024/01/09 03:24:38;;;;;;;1.98;1.10;;;-0.20;48.50;;;;;;5052474;28;20079;-74
2024/01/09 03:27:04;;;;;;;6.20;2.25;;;-0.10;49.30;;;;;;5052152;28;20041;-75
2024/01/09 03:29:30;;;;;;;5.50;1.75;;;-0.10;49.10;;;;;;5052759;28;20037;-75
2024/01/09 03:31:57;;;;;;;4.03;1.75;;;-0.10;49.70;;;;;;5051215;28;20099;-75
2024/01/09 03:34:23;;;;;;;3.75;1.20;;;-0.10;49.60;;;;;;5051136;28;20033;-74
2024/01/09 03:36:49;;;;;;;4.38;2.53;;;-0.10;49.80;;;;;;5051902;28;20044;-74
2024/01/09 03:39:15;;;;;;;2.78;1.75;;;-0.10;49.50;;;;;;5034466;28;20079;-75
2024/01/09 03:41:42;;;;;;;1.92;1.58;;;-0.10;50.00;;;;;;5050295;28;20513;-75
2024/01/09 03:44:09;;;;;;;2.33;1.42;;;-0.20;48.80;;;;;;5050438;28;20450;-74
2024/01/09 03:46:36;;;;;;;3.42;2.10;;;-0.20;48.90;;;;;;5051907;28;20029;-75
2024/01/09 03:49:02;;;;;;;4.43;2.55;;;-0.20;48.30;;;;;;5050660;28;20059;-74
2024/01/09 03:51:29;;;;;;;5.35;1.92;;;-0.20;49.30;;;;;;5049993;28;20559;-74
2024/01/09 03:53:55;;;;;;;7.95;3.30;;;-0.20;49.40;;;;;;5050345;28;20524;-75
2024/01/09 03:56:21;;;;;;;;;;;-0.20;49.80;;;;;;5051628;28;20037;-75
2024/01/09 03:58:47;;;;;;;4.65;1.65;;;-0.20;49.30;;;;;;5050365;28;19920;-74
2024/01/09 04:01:13;;;;;;;2.75;1.52;;;-0.20;50.10;;;;;;5050599;28;20041;-74
2024/01/09 04:03:40;;;;;;;3.00;1.50;;;-0.20;49.80;;;;;;5051950;28;20481;-74
2024/01/09 04:06:06;;;;;;;6.03;2.72;;;-0.20;50.00;;;;;;5050019;28;20040;-74
2024/01/09 04:08:32;;;;;;;2.70;1.88;;;-0.20;50.00;;;;;;5051975;28;20033;-74
2024/01/09 04:10:59;;;;;;;2.10;1.05;;;-0.20;49.80;;;;;;5033038;28;20087;-75
2024/01/09 04:13:25;;;;;;;;;;;-0.20;49.40;;;;;;5034244;28;20482;-74
2024/01/09 04:15:51;;;;;;;3.15;1.38;;;-0.30;48.80;;;;;;5051719;28;20027;-75
2024/01/09 04:18:17;;;;;;;5.30;3.55;;;-0.40;48.10;;;;;;5051232;28;20048;-73
2024/01/09 04:20:43;;;;;;;2.38;1.20;;;-0.40;48.10;;;;;;5051344;28;20491;-75
2024/01/09 04:23:09;;;;;;;1.85;1.20;;;-0.40;47.80;;;;;;5033369;28;20472;-74
2024/01/09 04:25:35;;;;;;;2.90;2.17;;;-0.40;48.50;;;;;;5050167;28;20033;-74
2024/01/09 04:28:01;;;;;;;4.63;3.00;;;-0.40;48.30;;;;;;5051704;28;20041;-75
2024/01/09 04:30:27;;;;;;;3.13;2.35;;;-0.40;48.60;;;;;;5050652;28;20456;-75
2024/01/09 04:32:53;;;;;;;4.55;3.05;;;-0.40;48.20;;;;;;5051467;28;20041;-73
2024/01/09 04:35:19;;;;;;;3.40;2.22;;;-0.40;48.00;;;;;;5051326;28;20535;-74
2024/01/09 04:37:45;;;;;;;2.90;1.60;;;-0.40;48.00;;;;;;5050012;28;20083;-75
2024/01/09 04:40:12;;;;;;;3.15;1.98;;;-0.50;47.80;;;;;;5032990;28;20065;-75
2024/01/09 04:42:38;;;;;;;2.45;1.17;;;-0.50;47.70;;;;;;5051360;28;20025;-74
2024/01/09 04:45:04;;;;;;;3.45;1.83;;;-0.50;47.00;;;;;;5050209;28;20086;-74
2024/01/09 04:47:30;;;;;;;4.75;2.13;;;-0.60;46.70;;;;;;5049905;28;20029;-74
2024/01/09 04:49:56;;;;;;;3.05;2.00;;;-0.50;47.30;;;;;;5051174;28;20486;-74
2024/01/09 04:52:23;;;;;;;3.75;1.73;;;-0.50;47.20;;;;;;5032655;28;20037;-75
2024/01/09 04:54:49;;;;;;;6.32;2.25;;;-0.60;47.10;;;;;;5049686;28;20033;-73
2024/01/09 04:57:15;;;;;;;1.70;1.08;;;-0.50;48.20;;;;;;5033249;28;20444;-74
2024/01/09 04:59:42;;;;;;;;;;;-0.60;47.60;;;;;;5050654;28;20052;-75
2024/01/09 05:02:09;;;;;;;3.67;1.13;;;-0.60;47.20;;;;;;5049003;28;19920;-75
2024/01/09 05:04:35;;;;;;;3.78;2.30;;;-0.70;47.00;;;;;;5051364;28;20041;-75
2024/01/09 05:07:01;;;;;;;4.50;3.28;;;-0.70;46.50;;;;;;5049566;28;20489;-74
2024/01/09 05:09:27;;;;;;;;;;;-0.70;47.10;;;;;;5052305;28;20041;-74
2024/01/09 05:11:54;;;;;;;0.82;0.45;;;-0.70;46.60;;;;;;5052988;28;20285;-75
2024/01/09 05:14:20;;;;;;;;;;;-0.80;46.90;;;;;;5055225;28;20037;-74
2024/01/09 05:16:46;;;;;;;3.50;2.13;;;-0.80;46.80;;;;;;5054723;28;19923;-74
2024/01/09 05:19:12;;;;;;;4.88;1.90;;;-0.80;47.30;;;;;;5053423;28;20465;-75
2024/01/09 05:21:38;;;;;;;5.47;3.08;;;-0.80;47.30;;;;;;5052801;28;20520;-74
2024/01/09 05:24:04;;;;;;;2.85;1.27;;;-0.80;47.30;;;;;;5053371;28;20040;-75
2024/01/09 05:26:30;;;;;;;1.83;1.45;;;-0.80;46.60;;;;;;5054057;28;20087;-74
2024/01/09 05:28:56;;;;;;;2.33;1.08;;;-0.80;47.60;;;;;;5053061;28;20045;-75
2024/01/09 05:31:23;;;;;;;5.43;2.30;;;-0.70;47.80;;;;;;5052083;28;20056;-74
2024/01/09 05:33:50;;;;;;;5.63;1.48;;;-0.70;47.60;;;;;;5054378;28;20079;-74
2024/01/09 05:39:01;;;;;;;10.13;3.55;;;-0.70;48.00;;;;;;5048120;28;20107;-74
2024/01/09 05:41:27;;;;;;;;;;;-0.80;47.50;;;;;;5053001;28;20045;-75
2024/01/09 05:43:53;;;;;;;0.88;0.55;;;-0.80;47.30;;;;;;5054254;28;20328;-74
2024/01/09 05:46:20;;;;;;;7.03;3.38;;;-0.80;47.70;;;;;;5054210;28;20037;-75
2024/01/09 05:48:46;;;;;;;4.65;2.20;;;-0.80;47.70;;;;;;5052306;28;20037;-74
2024/01/09 05:51:12;;;;;;;6.75;2.92;;;-0.80;48.20;;;;;;5053450;28;20064;-74
2024/01/09 05:53:39;;;;;;;7.68;3.25;;;-0.80;48.70;;;;;;5053869;28;20099;-74
2024/01/09 05:58:51;;;;;;;4.97;4.00;;;-0.80;47.90;;;;;;5052692;28;20048;-75
2024/01/09 06:01:17;;;;;;;4.75;2.28;;;-0.80;48.50;;;;;;5053338;28;20040;-75
2024/01/09 06:03:43;;;;;;;4.75;2.55;;;-0.80;47.90;;;;;;5052515;28;20029;-74
2024/01/09 06:06:10;;;;;;;1.55;0.93;;;-0.90;48.80;;;;;;5053672;28;20033;-75
2024/01/09 06:08:36;;;;;;;2.75;2.03;;;-0.80;48.60;;;;;;5035613;28;20040;-75
2024/01/09 06:11:02;;;;;;;4.45;3.25;;;-0.80;48.70;;;;;;5053162;28;20032;-75
2024/01/09 06:13:28;;;;;;;1.75;1.38;;;-0.80;48.80;;;;;;5052334;28;20112;-74
2024/01/09 06:15:54;;;;;;;4.38;2.92;;;-0.90;48.50;;;;;;5053311;28;20037;-73
2024/01/09 06:18:20;;;;;;;4.90;3.65;;;-0.90;48.60;;;;;;5053519;28;20040;-74
2024/01/09 06:20:46;;;;;;;1.80;1.20;;;-0.90;48.80;;;;;;5050999;28;20100;-75
2024/01/09 06:23:12;;;;;;;4.03;2.55;;;-0.90;48.50;;;;;;5053536;28;20086;-74
2024/01/09 06:25:38;;;;;;;4.30;2.53;;;-0.90;48.50;;;;;;5052856;28;20037;-74
2024/01/09 06:28:05;;;;;;;4.43;3.00;;;-0.90;48.80;;;;;;5053588;28;20033;-74
2024/01/09 06:30:34;;;;;;;5.97;4.22;;;-0.80;48.70;;;;;;5035013;28;20405;-74
2024/01/09 06:33:00;;;;;;;4.15;2.15;;;-0.80;49.00;;;;;;5051401;28;20044;-75
2024/01/09 06:35:26;;;;;;;3.72;2.17;;;-0.90;49.00;;;;;;5051932;28;20041;-74
2024/01/09 06:37:52;;;;;;;2.40;1.77;;;-0.90;49.20;;;;;;5051669;28;20037;-75
2024/01/09 06:40:20;;;;;;;4.07;2.65;;;-0.80;48.40;;;;;;5051412;28;20036;-74
2024/01/09 06:42:47;;;;;;;2.72;1.17;;;-0.90;48.70;;;;;;5034904;28;20025;-75
2024/01/09 06:45:14;;;;;;;2.70;1.17;;;-0.80;48.40;;;;;;5045805;28;20490;-75
2024/01/09 06:47:41;;;;;;;2.75;1.60;;;-0.80;48.70;;;;;;5053176;28;20067;-75
2024/01/09 06:50:08;;;;;;;8.30;3.75;;;-0.80;48.70;;;;;;5042596;28;20021;-74
2024/01/09 06:52:34;;;;;;;5.68;3.72;;;-0.80;48.40;;;;;;5052849;28;20029;-74
2024/01/09 06:55:01;;;;;;;5.88;3.40;;;-0.80;49.00;;;;;;5051371;28;20525;-75
2024/01/09 06:57:27;;;;;;;;;;;-0.80;49.40;;;;;;5053379;28;20071;-74
2024/01/09 06:59:53;;;;;;;2.67;1.70;;;-0.80;49.20;;;;;;5052591;28;20323;-75
2024/01/09 07:02:19;;;;;;;5.25;2.47;;;-0.80;49.40;;;;;;5050604;28;20044;-74
2024/01/09 07:04:45;;;;;;;5.97;4.05;;;-0.70;49.20;;;;;;5051632;28;20490;-74
2024/01/09 07:07:12;;;;;;;6.85;3.00;;;-0.80;48.80;;;;;;5052290;28;20044;-75
2024/01/09 07:09:39;;;;;;;2.45;1.70;;;-0.80;48.90;;;;;;5053180;28;20064;-74
2024/01/09 07:12:08;;;;;;;8.57;3.53;;;-0.80;48.40;;;;;;5050557;28;20041;-74
2024/01/09 07:14:34;;;;;;;7.07;3.75;;;-0.80;48.00;;;;;;5050916;28;20033;-75
2024/01/09 07:17:01;;;;;;;2.97;1.27;;;-0.70;48.90;;;;;;5051096;28;20039;-74
2024/01/09 07:19:27;;;;;;;5.03;2.28;;;-0.70;48.80;;;;;;5051179;28;20029;-74
2024/01/09 07:21:53;;;;;;;2.85;1.40;;;-0.70;49.00;;;;;;5033851;28;20048;-75
2024/01/09 07:24:19;;;;;;;5.63;1.65;;;-0.70;49.10;;;;;;5034294;28;20040;-74
2024/01/09 07:26:45;;;;;;;5.50;1.35;;;-0.70;49.00;;;;;;5050928;28;20490;-75
2024/01/09 07:29:16;;;;;;;5.95;3.40;;;-0.70;49.00;;;;;;5034406;28;20048;-75
2024/01/09 07:31:43;;;;;;;4.32;2.47;;;-0.70;48.40;;;;;;5049546;28;20045;-74
2024/01/09 07:34:09;;;;;;;3.45;1.40;;;-0.70;48.10;;;;;;5050885;28;20041;-74
2024/01/09 07:36:35;;;;;;;2.33;1.90;;;-0.70;48.60;;;;;;5050698;28;20120;-75
2024/01/09 07:39:01;;;;;;;1.70;1.60;;;-0.60;48.70;;;;;;5051858;28;20125;-73
2024/01/09 07:41:27;;;;;;;1.75;1.20;;;-0.70;48.20;;;;;;5050047;28;20075;-74
2024/01/09 07:43:53;;;;;;;7.35;1.50;;;-0.60;48.00;;;;;;5052076;28;20037;-74
2024/01/09 07:46:19;;;;;;;;;;;-0.60;48.30;;;;;;5051011;28;20444;-74
2024/01/09 07:48:45;;;;;;;5.10;1.92;;;-0.60;48.90;;;;;;5051726;28;19921;-75
2024/01/09 07:51:11;;;;;;;6.85;3.13;;;-0.60;47.70;;;;;;5050839;28;20406;-75
2024/01/09 07:53:37;;;;;;;3.92;2.83;;;-0.60;47.70;;;;;;5051426;28;20041;-74
2024/01/09 07:56:31;;;;;;;6.53;3.22;;;-0.50;48.10;;;;;;5050240;28;20633;-74
2024/01/09 07:58:57;;;;;;;6.85;2.55;;;-0.50;48.30;;;;;;5051691;28;20124;-74
2024/01/09 08:01:24;;;;;;;5.57;1.73;;;-0.60;47.90;;;;;;5049703;28;20110;-74
2024/01/09 08:03:50;;;;;;;3.03;2.35;;;-0.50;48.10;;;;;;5052039;28;20074;-74
2024/01/09 08:06:17;;;;;;;8.85;3.30;;;-0.50;47.60;;;;;;5050232;28;20033;-74
2024/01/09 08:08:43;;;;;;;;;;;-0.60;47.50;;;;;;5052191;28;20033;-74
2024/01/09 08:11:09;;;;;;;3.95;2.40;;;-0.50;47.70;;;;;;5049804;28;19932;-74
2024/01/09 08:13:37;;;;;;;3.90;2.67;;;-0.60;46.50;;;;;;5050432;28;20112;-74
2024/01/09 08:16:04;;;;;;;6.07;3.25;;;-0.60;47.70;;;;;;5050247;28;20036;-74
2024/01/09 08:18:30;;;;;;;7.75;4.72;;;-0.50;48.10;;;;;;5051642;28;20033;-74
2024/01/09 08:20:57;;;;;;;9.38;4.95;;;-0.50;47.90;;;;;;5049555;28;20041;-75
2024/01/09 08:26:08;;;;;;;3.80;3.35;;;-0.40;47.60;;;;;;5050467;28;20040;-74
2024/01/09 08:28:34;;;;;;;;;;;-0.30;48.10;;;;;;5052531;28;20448;-74
2024/01/09 08:31:01;;;;;;;6.57;3.53;;;-0.40;48.00;;;;;;5051023;28;19929;-74
2024/01/09 08:33:28;;;;;;;17.33;3.58;;;-0.30;47.90;;;;;;5033199;28;20037;-74
2024/01/09 08:35:54;;;;;;;4.18;2.30;;;-0.30;47.70;;;;;;5050307;28;20040;-74
2024/01/09 08:38:20;;;;;;;4.55;3.33;;;-0.30;48.00;;;;;;5049896;28;20092;-74
2024/01/09 08:40:52;;;;;;;3.72;2.67;;;-0.30;47.60;;;;;;5050988;28;20110;-74
2024/01/09 08:43:18;;;;;;;4.22;3.03;;;-0.30;47.80;;;;;;5052630;28;20037;-74
2024/01/09 08:45:46;;;;;;;2.45;2.05;;;-0.30;47.40;;;;;;5046648;28;20029;-74
2024/01/09 08:48:12;;;;;;;6.05;2.22;;;-0.30;47.50;;;;;;5055445;28;20072;-74
2024/01/09 08:50:38;;;;;;;3.50;2.72;;;-0.30;47.80;;;;;;5053100;28;20051;-74
2024/01/09 08:53:04;;;;;;;5.30;1.98;;;-0.20;47.30;;;;;;5053571;28;20084;-74
2024/01/09 08:55:30;;;;;;;3.50;2.10;;;-0.20;47.00;;;;;;5053409;28;20064;-75
2024/01/09 08:57:56;;;;;;;5.05;2.10;;;-0.20;47.00;;;;;;5055066;28;20033;-75
2024/01/09 09:00:22;;;;;;;4.35;1.98;;;-0.10;46.90;;;;;;5054370;28;20049;-75
2024/01/09 09:02:49;;;;;;;6.25;2.63;;;-0.10;46.90;;;;;;5036982;28;20128;-75
2024/01/09 09:05:15;;;;;;;;;;;-0.10;46.90;;;;;;5037524;28;20559;-74
2024/01/09 09:07:41;;;;;;;9.85;2.40;;;-0.10;46.60;;;;;;5054772;28;20003;-74
2024/01/09 09:10:07;;;;;;;8.23;3.63;;;0.00;46.50;;;;;;5054172;28;20037;-74
2024/01/09 09:12:33;;;;;;;6.07;4.13;;;-0.10;45.80;;;;;;5054451;28;20041;-75
2024/01/09 09:15:02;;;;;;;6.55;3.83;;;-0.10;45.80;;;;;;5036715;28;20033;-74
2024/01/09 09:17:30;;;;;;;4.40;2.00;;;-0.10;46.20;;;;;;5053171;28;20033;-73
2024/01/09 09:19:57;;;;;;;6.40;2.70;;;-0.10;46.20;;;;;;5036719;28;20163;-74
2024/01/09 09:22:25;;;;;;;7.65;4.45;;;0.00;46.70;;;;;;5052797;28;20037;-74
2024/01/09 09:24:55;;;;;;;8.63;3.45;;;0.10;46.70;;;;;;5062010;28;20091;-74
2024/01/09 09:27:21;;;;;;;4.90;2.35;;;0.10;46.50;;;;;;5053052;28;20029;-74
2024/01/09 09:29:48;;;;;;;3.70;2.83;;;0.10;46.20;;;;;;5053443;28;20429;-74
2024/01/09 09:32:15;;;;;;;9.32;5.25;;;0.10;46.70;;;;;;5053706;28;20041;-73
2024/01/09 09:34:41;;;;;;;11.07;2.75;;;0.10;45.60;;;;;;5052905;28;20608;-74
2024/01/09 09:37:08;;;;;;;10.98;4.53;;;0.10;45.80;;;;;;5053362;28;20028;-74
2024/01/09 09:39:35;;;;;;;5.85;3.70;;;0.10;45.00;;;;;;5054299;28;20029;-74
2024/01/09 09:42:01;;;;;;;7.90;3.65;;;0.20;44.60;;;;;;5054168;28;20044;-74
2024/01/09 09:44:27;;;;;;;5.22;2.67;;;0.20;45.30;;;;;;5036243;28;20374;-74
2024/01/09 09:46:56;;;;;;;7.72;3.35;;;0.20;45.90;;;;;;5053966;28;20436;-74
2024/01/09 09:49:22;;;;;;;3.85;2.45;;;0.30;46.30;;;;;;5036460;28;20062;-74
2024/01/09 09:51:50;;;;;;;3.42;1.77;;;0.30;44.90;;;;;;5053194;28;20140;-74
2024/01/09 09:54:18;;;;;;;6.53;3.00;;;0.30;45.50;;;;;;5053711;28;20025;-75
2024/01/09 09:56:45;;;;;;;7.60;2.28;;;0.30;45.10;;;;;;5035788;28;20047;-74
2024/01/09 09:59:12;;;;;;;5.03;3.22;;;0.40;45.00;;;;;;5052710;28;20064;-74
2024/01/09 10:01:40;;;;;;;4.25;2.88;;;0.40;44.40;;;;;;5034798;28;20505;-74
2024/01/09 10:05:02;;;;;;;3.67;2.70;;;0.40;44.60;;;;;;5062271;28;20482;-75
2024/01/09 10:07:32;;;;;;;6.05;3.55;;;0.50;44.30;;;;;;5053793;28;20036;-74
2024/01/09 10:10:02;;;;;;;7.75;2.78;;;0.50;44.60;;;;;;5052129;28;20029;-75
2024/01/09 10:12:28;;;;;;;5.50;3.72;;;0.50;44.70;;;;;;5035483;28;20048;-75
2024/01/09 10:15:13;;;;;;;3.58;2.53;;;0.50;44.80;;;;;;5053210;28;20041;-75
2024/01/09 10:17:40;;;;;;;4.82;1.58;;;0.60;44.40;;;;;;5052083;28;20087;-74
2024/01/09 10:20:09;;;;;;;5.40;2.28;;;0.60;44.40;;;;;;5044874;28;20458;-74
2024/01/09 10:22:38;;;;;;;6.28;2.95;;;0.70;44.00;;;;;;5052401;28;20478;-74
2024/01/09 10:25:06;;;;;;;4.20;2.38;;;0.70;44.10;;;;;;5035606;28;20025;-74
2024/01/09 10:27:50;;;;;;;10.85;3.30;;;0.70;43.60;;;;;;5053102;28;20063;-74
2024/01/09 10:30:19;;;;;;;3.80;2.45;;;0.70;43.70;;;;;;5045794;28;20490;-75
2024/01/09 10:32:47;;;;;;;6.82;3.80;;;0.70;43.90;;;;;;5051748;28;20106;-75
2024/01/09 10:35:13;;;;;;;4.93;3.40;;;0.80;43.80;;;;;;5052026;28;20033;-75
2024/01/09 10:37:39;;;;;;;9.38;4.28;;;0.80;43.30;;;;;;5052063;28;20025;-74
2024/01/09 10:40:06;;;;;;;5.45;3.22;;;0.70;43.30;;;;;;5050962;28;20781;-74
2024/01/09 10:42:45;;;;;;;7.90;3.67;;;0.70;43.60;;;;;;5051732;28;20099;-74
2024/01/09 10:45:12;;;;;;;5.30;3.63;;;0.80;44.10;;;;;;5035050;28;20025;-75
2024/01/09 10:47:39;;;;;;;4.07;2.13;;;0.80;44.20;;;;;;5051832;28;20112;-74
2024/01/09 10:50:08;;;;;;;5.65;3.30;;;0.80;43.50;;;;;;5050845;28;20037;-74
2024/01/09 10:52:35;;;;;;;4.60;2.60;;;0.70;43.60;;;;;;5051769;28;20035;-75
2024/01/09 10:55:05;;;;;;;7.70;3.15;;;0.70;43.60;;;;;;5051518;28;20504;-74
2024/01/09 10:57:33;;;;;;;6.10;2.95;;;0.70;43.50;;;;;;5051449;28;20037;-74
2024/01/09 11:00:00;;;;;;;11.57;3.83;;;0.70;43.70;;;;;;5051874;28;20056;-75
2024/01/09 11:02:32;;;;;;;6.85;2.95;;;0.70;44.10;;;;;;5051871;28;20037;-75
2024/01/09 11:04:59;;;;;;;4.10;1.77;;;0.70;43.60;;;;;;5052613;28;20069;-74
2024/01/09 11:07:26;;;;;;;5.30;3.33;;;0.70;43.80;;;;;;5050451;28;20036;-75
2024/01/09 11:09:54;;;;;;;5.38;3.35;;;0.70;43.50;;;;;;5051321;28;20486;-74
2024/01/09 11:12:41;;;;;;;8.68;3.85;;;0.70;43.80;;;;;;5059319;28;20401;-74
2024/01/09 11:15:31;;;;;;;4.05;1.95;;;0.80;43.80;;;;;;5050974;28;20394;-74
2024/01/09 11:18:17;;;;;;;6.93;2.60;;;0.80;42.70;;;;;;5051158;28;20524;-74
2024/01/09 11:20:43;;;;;;;5.93;4.28;;;0.80;42.90;;;;;;5051578;28;20116;-74
2024/01/09 11:23:11;;;;;;;5.60;2.92;;;0.80;43.50;;;;;;5051984;28;20045;-74
2024/01/09 11:25:37;;;;;;;4.68;2.35;;;0.90;43.70;;;;;;5051141;28;20056;-74
2024/01/09 11:28:04;;;;;;;1.90;1.42;;;0.90;43.70;;;;;;5050767;28;20041;-74
2024/01/09 11:30:31;;;;;;;4.38;3.10;;;0.90;43.80;;;;;;5050666;28;20087;-75
2024/01/09 11:33:41;;;;;;;7.53;3.22;;;0.90;44.00;;;;;;5050551;28;20041;-75
2024/01/09 11:36:09;;;;;;;6.25;2.90;;;0.90;43.60;;;;;;5048229;28;20064;-75
2024/01/09 11:38:37;;;;;;;6.63;4.57;;;0.90;43.80;;;;;;5052116;28;20036;-75
2024/01/09 11:41:05;;;;;;;8.82;2.85;;;0.90;43.80;;;;;;5033559;28;20389;-74
2024/01/09 11:44:11;;;;;;;3.78;2.85;;;0.90;43.70;;;;;;5051121;28;20075;-74
2024/01/09 11:46:38;;;;;;;5.57;3.35;;;1.00;43.40;;;;;;5060315;28;20028;-75
2024/01/09 11:49:06;;;;;;;3.70;1.83;;;1.00;43.30;;;;;;5050844;28;20041;-75
2024/01/09 11:51:33;;;;;;;5.70;3.55;;;1.00;43.40;;;;;;5058820;28;20036;-74
2024/01/09 11:54:01;;;;;;;6.85;4.03;;;1.00;43.10;;;;;;5067250;28;20056;-75
2024/01/09 11:56:28;;;;;;;4.95;2.55;;;1.00;43.90;;;;;;5050296;28;20470;-75
2024/01/09 11:58:55;;;;;;;8.18;2.63;;;1.10;44.00;;;;;;5050435;28;20053;-74
2024/01/09 12:01:21;;;;;;;;;;;1.00;43.20;;;;;;5050453;28;20128;-75
2024/01/09 12:04:06;;;;;;;4.70;2.78;;;1.10;43.80;;;;;;5050429;28;19963;-74
2024/01/09 12:06:33;;;;;;;6.03;1.92;;;1.10;44.10;;;;;;5042308;28;20516;-73
2024/01/09 12:08:59;;;;;;;2.95;1.85;;;1.00;43.70;;;;;;5050376;28;20049;-75
2024/01/09 12:11:25;;;;;;;8.65;4.97;;;1.00;43.70;;;;;;5051172;28;20041;-74
2024/01/09 12:14:11;;;;;;;4.65;2.65;;;1.00;43.20;;;;;;5050313;28;20033;-75
2024/01/09 12:16:38;;;;;;;4.10;2.60;;;1.00;43.60;;;;;;5042603;28;20112;-75
2024/01/09 12:19:04;;;;;;;7.85;3.58;;;1.00;43.90;;;;;;5054565;28;20041;-75
2024/01/09 12:21:33;;;;;;;5.60;3.03;;;1.10;44.10;;;;;;5055058;28;20417;-75
2024/01/09 12:24:01;;;;;;;7.68;2.85;;;1.10;44.00;;;;;;5037747;28;20053;-75
2024/01/09 12:26:28;;;;;;;4.25;2.80;;;1.10;43.60;;;;;;5054141;28;20055;-74
2024/01/09 12:28:56;;;;;;;5.43;3.28;;;1.10;43.90;;;;;;5037963;28;20033;-74
2024/01/09 12:31:41;;;;;;;8.50;3.33;;;1.10;44.00;;;;;;5036916;28;20048;-74
2024/01/09 12:34:07;;;;;;;4.70;2.83;;;1.10;44.00;;;;;;5051765;28;20052;-74
2024/01/09 12:36:34;;;;;;;4.07;2.75;;;1.10;43.30;;;;;;5053368;28;20040;-74
2024/01/09 12:39:00;;;;;;;9.00;3.92;;;1.10;42.10;;;;;;5053943;28;20068;-74
2024/01/09 12:41:26;;;;;;;6.90;3.13;;;1.00;43.10;;;;;;5047563;28;20037;-74
2024/01/09 12:43:52;;;;;;;5.85;2.03;;;1.10;43.00;;;;;;5054133;28;20029;-74
2024/01/09 12:46:21;;;;;;;7.47;2.67;;;1.10;43.30;;;;;;5053954;28;20082;-74
2024/01/09 12:48:49;;;;;;;5.30;3.60;;;1.10;43.60;;;;;;5047851;28;20033;-74
2024/01/09 12:51:15;;;;;;;3.33;2.28;;;1.00;43.80;;;;;;5053273;28;20037;-75
2024/01/09 12:53:41;;;;;;;4.68;2.45;;;1.00;43.70;;;;;;5036949;28;20041;-75
2024/01/09 12:56:27;;;;;;;4.35;2.88;;;1.00;43.20;;;;;;5037201;28;20124;-74
2024/01/09 12:58:53;;;;;;;5.25;3.13;;;1.00;43.00;;;;;;5055052;28;20057;-74
2024/01/09 13:01:19;;;;;;;;;;;1.00;43.10;;;;;;5053788;28;20049;-74
2024/01/09 13:03:45;;;;;;;4.90;2.05;;;0.90;43.20;;;;;;5053568;28;19998;-73
2024/01/09 13:06:12;;;;;;;;;;;0.90;43.60;;;;;;5055291;28;20037;-74